sensor_id;sensor_type;location;lat;lon;timestamp;temperature;humidity
18163;DHT22;9206;50.994;4.538;2023-01-01T00:01:46;16.10;99.90
18163;DHT22;9206;50.994;4.538;2023-01-01T00:04:43;16.00;99.90
18163;DHT22;9206;50.994;4.538;2023-01-01T00:07:33;16.00;99.90
18163;DHT22;9206;50.994;4.538;2023-01-01T00:10:20;16.00;99.90
18163;DHT22;9206;50.994;4.538;2023-01-01T00:13:18;16.00;99.90
18163;DHT22;9206;50.994;4.538;2023-01-01T00:16:10;15.90;99.90
18163;DHT22;9206;50.994;4.538;2023-01-01T00:18:59;16.00;99.90
18163;DHT22;9206;50.994;4.538;2023-01-01T00:21:48;16.00;99.90
18163;DHT22;9206;50.994;4.538;2023-01-01T00:24:36;15.90;99.90
18163;DHT22;9206;50.994;4.538;2023-01-01T00:27:31;15.80;99.90
18163;DHT22;9206;50.994;4.538;2023-01-01T00:30:19;15.80;99.90
18163;DHT22;9206;50.994;4.538;2023-01-01T00:33:14;15.70;99.90
18163;DHT22;9206;50.994;4.538;2023-01-01T00:36:05;15.60;99.90
18163;DHT22;9206;50.994;4.538;2023-01-01T00:38:53;15.70;99.90
18163;DHT22;9206;50.994;4.538;2023-01-01T00:41:43;15.70;99.90
18163;DHT22;9206;50.994;4.538;2023-01-01T00:44:34;15.70;99.90
18163;DHT22;9206;50.994;4.538;2023-01-01T00:47:21;15.60;99.90
18163;DHT22;9206;50.994;4.538;2023-01-01T00:50:09;15.60;99.90
18163;DHT22;9206;50.994;4.538;2023-01-01T00:52:57;15.50;99.90
18163;DHT22;9206;50.994;4.538;2023-01-01T00:55:48;15.50;99.90
18163;DHT22;9206;50.994;4.538;2023-01-01T00:58:35;15.40;99.90
18163;DHT22;9206;50.994;4.538;2023-01-01T01:01:22;15.40;99.90
18163;DHT22;9206;50.994;4.538;2023-01-01T01:04:10;15.40;99.90
18163;DHT22;9206;50.994;4.538;2023-01-01T01:07:01;15.50;99.90
18163;DHT22;9206;50.994;4.538;2023-01-01T01:09:48;15.50;99.90
18163;DHT22;9206;50.994;4.538;2023-01-01T01:12:41;15.50;99.90
18163;DHT22;9206;50.994;4.538;2023-01-01T01:15:34;15.40;99.90
18163;DHT22;9206;50.994;4.538;2023-01-01T01:18:21;15.40;99.90
18163;DHT22;9206;50.994;4.538;2023-01-01T01:21:16;15.40;99.90
18163;DHT22;9206;50.994;4.538;2023-01-01T01:24:11;15.30;99.90
18163;DHT22;9206;50.994;4.538;2023-01-01T01:27:04;15.40;99.90
18163;DHT22;9206;50.994;4.538;2023-01-01T01:29:52;15.30;99.90
18163;DHT22;9206;50.994;4.538;2023-01-01T01:32:43;15.30;99.90
18163;DHT22;9206;50.994;4.538;2023-01-01T01:35:34;15.30;99.90
18163;DHT22;9206;50.994;4.538;2023-01-01T01:38:27;15.40;99.90
18163;DHT22;9206;50.994;4.538;2023-01-01T01:41:22;15.40;99.90
18163;DHT22;9206;50.994;4.538;2023-01-01T01:44:47;15.30;99.90
18163;DHT22;9206;50.994;4.538;2023-01-01T01:47:38;15.30;99.90
18163;DHT22;9206;50.994;4.538;2023-01-01T01:50:36;15.40;99.90
18163;DHT22;9206;50.994;4.538;2023-01-01T01:53:27;15.30;99.90
18163;DHT22;9206;50.994;4.538;2023-01-01T01:56:22;15.20;99.90
18163;DHT22;9206;50.994;4.538;2023-01-01T01:59:18;15.10;99.90
18163;DHT22;9206;50.994;4.538;2023-01-01T02:02:13;15.10;99.90
18163;DHT22;9206;50.994;4.538;2023-01-01T02:05:05;15.10;99.90
18163;DHT22;9206;50.994;4.538;2023-01-01T02:08:04;15.00;99.90
18163;DHT22;9206;50.994;4.538;2023-01-01T02:10:53;14.90;99.90
18163;DHT22;9206;50.994;4.538;2023-01-01T02:13:47;14.80;99.90
18163;DHT22;9206;50.994;4.538;2023-01-01T02:16:37;14.80;99.90
18163;DHT22;9206;50.994;4.538;2023-01-01T02:19:35;14.80;99.90
18163;DHT22;9206;50.994;4.538;2023-01-01T02:22:31;14.80;99.90
18163;DHT22;9206;50.994;4.538;2023-01-01T02:25:29;14.80;99.90
18163;DHT22;9206;50.994;4.538;2023-01-01T02:28:51;14.80;99.90
18163;DHT22;9206;50.994;4.538;2023-01-01T02:31:48;14.90;99.90
18163;DHT22;9206;50.994;4.538;2023-01-01T02:34:39;14.90;99.90
18163;DHT22;9206;50.994;4.538;2023-01-01T02:37:30;15.00;99.90
18163;DHT22;9206;50.994;4.538;2023-01-01T02:40:22;15.00;99.90
18163;DHT22;9206;50.994;4.538;2023-01-01T02:43:14;15.00;99.90
18163;DHT22;9206;50.994;4.538;2023-01-01T02:46:09;15.00;99.90
18163;DHT22;9206;50.994;4.538;2023-01-01T02:49:04;15.00;99.90
18163;DHT22;9206;50.994;4.538;2023-01-01T02:52:00;15.00;99.90
18163;DHT22;9206;50.994;4.538;2023-01-01T02:54:52;15.00;99.90
18163;DHT22;9206;50.994;4.538;2023-01-01T02:57:47;15.10;99.90
18163;DHT22;9206;50.994;4.538;2023-01-01T03:00:37;14.90;99.90
18163;DHT22;9206;50.994;4.538;2023-01-01T03:03:29;15.00;99.90
18163;DHT22;9206;50.994;4.538;2023-01-01T03:06:25;15.00;99.90
18163;DHT22;9206;50.994;4.538;2023-01-01T03:09:20;14.90;99.90
18163;DHT22;9206;50.994;4.538;2023-01-01T03:12:18;14.90;99.90
18163;DHT22;9206;50.994;4.538;2023-01-01T03:15:17;14.80;99.90
18163;DHT22;9206;50.994;4.538;2023-01-01T03:18:12;14.80;99.90
18163;DHT22;9206;50.994;4.538;2023-01-01T03:21:05;14.80;99.90
18163;DHT22;9206;50.994;4.538;2023-01-01T03:23:55;14.80;99.90
18163;DHT22;9206;50.994;4.538;2023-01-01T03:26:47;14.70;99.90
18163;DHT22;9206;50.994;4.538;2023-01-01T03:29:43;14.80;99.90
18163;DHT22;9206;50.994;4.538;2023-01-01T03:32:34;14.80;99.90
18163;DHT22;9206;50.994;4.538;2023-01-01T03:35:41;14.80;99.90
18163;DHT22;9206;50.994;4.538;2023-01-01T03:38:36;14.70;99.90
18163;DHT22;9206;50.994;4.538;2023-01-01T03:41:31;14.80;99.90
18163;DHT22;9206;50.994;4.538;2023-01-01T03:44:26;14.70;99.90
18163;DHT22;9206;50.994;4.538;2023-01-01T03:47:17;14.60;99.90
18163;DHT22;9206;50.994;4.538;2023-01-01T03:50:07;14.50;99.90
18163;DHT22;9206;50.994;4.538;2023-01-01T03:53:03;14.50;99.90
18163;DHT22;9206;50.994;4.538;2023-01-01T03:56:01;14.40;99.90
18163;DHT22;9206;50.994;4.538;2023-01-01T03:58:55;14.40;99.90
18163;DHT22;9206;50.994;4.538;2023-01-01T04:01:49;14.40;99.90
18163;DHT22;9206;50.994;4.538;2023-01-01T04:04:44;14.40;99.90
18163;DHT22;9206;50.994;4.538;2023-01-01T04:07:35;14.30;99.90
18163;DHT22;9206;50.994;4.538;2023-01-01T04:10:28;14.30;99.90
18163;DHT22;9206;50.994;4.538;2023-01-01T04:13:20;14.30;99.90
18163;DHT22;9206;50.994;4.538;2023-01-01T04:16:09;14.30;99.90
18163;DHT22;9206;50.994;4.538;2023-01-01T04:18:56;14.30;99.90
18163;DHT22;9206;50.994;4.538;2023-01-01T04:21:43;14.30;99.90
18163;DHT22;9206;50.994;4.538;2023-01-01T04:24:36;14.30;99.90
18163;DHT22;9206;50.994;4.538;2023-01-01T04:27:24;14.30;99.90
18163;DHT22;9206;50.994;4.538;2023-01-01T04:30:14;14.30;99.90
18163;DHT22;9206;50.994;4.538;2023-01-01T04:33:04;14.20;99.90
18163;DHT22;9206;50.994;4.538;2023-01-01T04:36:02;14.20;99.90
18163;DHT22;9206;50.994;4.538;2023-01-01T04:38:56;14.20;99.90
18163;DHT22;9206;50.994;4.538;2023-01-01T04:41:45;14.20;99.90
18163;DHT22;9206;50.994;4.538;2023-01-01T04:44:34;14.30;99.90
18163;DHT22;9206;50.994;4.538;2023-01-01T04:47:23;14.20;99.90
18163;DHT22;9206;50.994;4.538;2023-01-01T04:50:11;14.20;99.90
18163;DHT22;9206;50.994;4.538;2023-01-01T04:52:59;14.20;99.90
18163;DHT22;9206;50.994;4.538;2023-01-01T04:55:46;14.30;99.90
18163;DHT22;9206;50.994;4.538;2023-01-01T04:58:34;14.20;99.90
18163;DHT22;9206;50.994;4.538;2023-01-01T05:01:26;14.20;99.90
18163;DHT22;9206;50.994;4.538;2023-01-01T05:04:17;14.20;99.90
18163;DHT22;9206;50.994;4.538;2023-01-01T05:07:05;14.20;99.90
18163;DHT22;9206;50.994;4.538;2023-01-01T05:09:52;14.20;99.90
18163;DHT22;9206;50.994;4.538;2023-01-01T05:12:40;14.10;99.90
18163;DHT22;9206;50.994;4.538;2023-01-01T05:15:30;14.20;99.90
18163;DHT22;9206;50.994;4.538;2023-01-01T05:18:17;14.10;99.90
18163;DHT22;9206;50.994;4.538;2023-01-01T05:21:10;14.10;99.90
18163;DHT22;9206;50.994;4.538;2023-01-01T05:24:00;14.10;99.90
18163;DHT22;9206;50.994;4.538;2023-01-01T05:26:48;14.20;99.90
18163;DHT22;9206;50.994;4.538;2023-01-01T05:29:35;14.20;99.90
18163;DHT22;9206;50.994;4.538;2023-01-01T05:32:25;14.10;99.90
18163;DHT22;9206;50.994;4.538;2023-01-01T05:35:19;14.20;99.90
18163;DHT22;9206;50.994;4.538;2023-01-01T05:38:09;14.20;99.90
18163;DHT22;9206;50.994;4.538;2023-01-01T05:40:57;14.20;99.90
18163;DHT22;9206;50.994;4.538;2023-01-01T05:43:51;14.20;99.90
18163;DHT22;9206;50.994;4.538;2023-01-01T05:46:41;14.30;99.90
18163;DHT22;9206;50.994;4.538;2023-01-01T05:49:36;14.30;99.90
18163;DHT22;9206;50.994;4.538;2023-01-01T05:52:25;14.30;99.90
18163;DHT22;9206;50.994;4.538;2023-01-01T05:55:14;14.20;99.90
18163;DHT22;9206;50.994;4.538;2023-01-01T05:58:07;14.20;99.90
18163;DHT22;9206;50.994;4.538;2023-01-01T06:00:56;14.20;99.90
18163;DHT22;9206;50.994;4.538;2023-01-01T06:03:48;14.10;99.90
18163;DHT22;9206;50.994;4.538;2023-01-01T06:06:35;14.10;99.90
18163;DHT22;9206;50.994;4.538;2023-01-01T06:09:29;14.20;99.90
18163;DHT22;9206;50.994;4.538;2023-01-01T06:12:23;14.20;99.90
18163;DHT22;9206;50.994;4.538;2023-01-01T06:15:12;14.20;99.90
18163;DHT22;9206;50.994;4.538;2023-01-01T06:18:02;14.10;99.90
18163;DHT22;9206;50.994;4.538;2023-01-01T06:20:53;14.10;99.90
18163;DHT22;9206;50.994;4.538;2023-01-01T06:23:40;14.10;99.90
18163;DHT22;9206;50.994;4.538;2023-01-01T06:26:34;14.00;99.90
18163;DHT22;9206;50.994;4.538;2023-01-01T06:29:24;14.00;99.90
18163;DHT22;9206;50.994;4.538;2023-01-01T06:32:17;13.90;99.90
18163;DHT22;9206;50.994;4.538;2023-01-01T06:35:06;13.70;99.90
18163;DHT22;9206;50.994;4.538;2023-01-01T06:37:54;13.50;99.90
18163;DHT22;9206;50.994;4.538;2023-01-01T06:40:55;13.30;99.90
18163;DHT22;9206;50.994;4.538;2023-01-01T06:43:46;13.30;99.90
18163;DHT22;9206;50.994;4.538;2023-01-01T06:46:40;13.20;99.90
18163;DHT22;9206;50.994;4.538;2023-01-01T06:49:28;13.10;99.90
18163;DHT22;9206;50.994;4.538;2023-01-01T06:52:21;13.10;99.90
18163;DHT22;9206;50.994;4.538;2023-01-01T06:55:15;13.20;99.90
18163;DHT22;9206;50.994;4.538;2023-01-01T06:58:06;13.20;99.90
18163;DHT22;9206;50.994;4.538;2023-01-01T07:01:02;13.20;99.90
18163;DHT22;9206;50.994;4.538;2023-01-01T07:03:54;13.30;99.90
18163;DHT22;9206;50.994;4.538;2023-01-01T07:06:42;13.40;99.90
18163;DHT22;9206;50.994;4.538;2023-01-01T07:09:30;13.40;99.90
18163;DHT22;9206;50.994;4.538;2023-01-01T07:12:23;13.50;99.90
18163;DHT22;9206;50.994;4.538;2023-01-01T07:15:11;13.60;99.90
18163;DHT22;9206;50.994;4.538;2023-01-01T07:18:04;13.70;99.90
18163;DHT22;9206;50.994;4.538;2023-01-01T07:20:55;13.60;99.90
18163;DHT22;9206;50.994;4.538;2023-01-01T07:23:45;13.60;99.90
18163;DHT22;9206;50.994;4.538;2023-01-01T07:26:33;13.60;99.90
18163;DHT22;9206;50.994;4.538;2023-01-01T07:29:21;13.60;99.90
18163;DHT22;9206;50.994;4.538;2023-01-01T07:32:11;13.60;99.90
18163;DHT22;9206;50.994;4.538;2023-01-01T07:35:05;13.60;99.90
18163;DHT22;9206;50.994;4.538;2023-01-01T07:38:00;13.60;99.90
18163;DHT22;9206;50.994;4.538;2023-01-01T07:40:50;13.60;99.90
18163;DHT22;9206;50.994;4.538;2023-01-01T07:43:37;13.60;99.90
18163;DHT22;9206;50.994;4.538;2023-01-01T07:46:25;13.60;99.90
18163;DHT22;9206;50.994;4.538;2023-01-01T07:49:15;13.50;99.90
18163;DHT22;9206;50.994;4.538;2023-01-01T07:52:04;13.50;99.90
18163;DHT22;9206;50.994;4.538;2023-01-01T07:54:56;13.50;99.90
18163;DHT22;9206;50.994;4.538;2023-01-01T07:57:46;13.60;99.90
18163;DHT22;9206;50.994;4.538;2023-01-01T08:00:34;13.60;99.90
18163;DHT22;9206;50.994;4.538;2023-01-01T08:03:22;13.50;99.90
18163;DHT22;9206;50.994;4.538;2023-01-01T08:06:12;13.40;99.90
18163;DHT22;9206;50.994;4.538;2023-01-01T08:08:59;13.40;99.90
18163;DHT22;9206;50.994;4.538;2023-01-01T08:11:49;13.50;99.90
18163;DHT22;9206;50.994;4.538;2023-01-01T08:14:38;13.40;99.90
18163;DHT22;9206;50.994;4.538;2023-01-01T08:17:28;13.40;99.90
18163;DHT22;9206;50.994;4.538;2023-01-01T08:20:15;13.40;99.90
18163;DHT22;9206;50.994;4.538;2023-01-01T08:23:03;13.40;99.90
18163;DHT22;9206;50.994;4.538;2023-01-01T08:25:51;13.40;99.90
18163;DHT22;9206;50.994;4.538;2023-01-01T08:28:45;13.40;99.90
18163;DHT22;9206;50.994;4.538;2023-01-01T08:31:33;13.40;99.90
18163;DHT22;9206;50.994;4.538;2023-01-01T08:34:23;13.40;99.90
18163;DHT22;9206;50.994;4.538;2023-01-01T08:37:13;13.40;99.90
18163;DHT22;9206;50.994;4.538;2023-01-01T08:40:04;13.40;99.90
18163;DHT22;9206;50.994;4.538;2023-01-01T08:42:58;13.40;99.90
18163;DHT22;9206;50.994;4.538;2023-01-01T08:45:49;13.40;99.90
18163;DHT22;9206;50.994;4.538;2023-01-01T08:48:44;13.30;99.90
18163;DHT22;9206;50.994;4.538;2023-01-01T08:51:31;13.40;99.90
18163;DHT22;9206;50.994;4.538;2023-01-01T08:54:24;13.50;99.90
18163;DHT22;9206;50.994;4.538;2023-01-01T08:57:14;13.50;99.90
18163;DHT22;9206;50.994;4.538;2023-01-01T09:00:01;13.50;99.90
18163;DHT22;9206;50.994;4.538;2023-01-01T09:02:50;13.50;99.90
18163;DHT22;9206;50.994;4.538;2023-01-01T09:05:37;13.60;99.90
18163;DHT22;9206;50.994;4.538;2023-01-01T09:08:36;13.60;99.90
18163;DHT22;9206;50.994;4.538;2023-01-01T09:11:26;13.60;99.90
18163;DHT22;9206;50.994;4.538;2023-01-01T09:14:16;13.70;99.90
18163;DHT22;9206;50.994;4.538;2023-01-01T09:17:04;13.70;99.90
18163;DHT22;9206;50.994;4.538;2023-01-01T09:19:55;13.80;99.90
18163;DHT22;9206;50.994;4.538;2023-01-01T09:22:49;13.90;99.90
18163;DHT22;9206;50.994;4.538;2023-01-01T09:25:36;13.90;99.90
18163;DHT22;9206;50.994;4.538;2023-01-01T09:28:25;14.00;99.90
18163;DHT22;9206;50.994;4.538;2023-01-01T09:31:14;14.10;99.90
18163;DHT22;9206;50.994;4.538;2023-01-01T09:34:02;14.20;99.90
18163;DHT22;9206;50.994;4.538;2023-01-01T09:36:54;14.30;99.90
18163;DHT22;9206;50.994;4.538;2023-01-01T09:39:41;14.40;99.90
18163;DHT22;9206;50.994;4.538;2023-01-01T09:42:36;14.50;99.90
18163;DHT22;9206;50.994;4.538;2023-01-01T09:45:31;14.50;99.90
18163;DHT22;9206;50.994;4.538;2023-01-01T09:48:28;14.50;99.90
18163;DHT22;9206;50.994;4.538;2023-01-01T09:51:22;14.40;99.90
18163;DHT22;9206;50.994;4.538;2023-01-01T09:54:24;14.40;99.90
18163;DHT22;9206;50.994;4.538;2023-01-01T09:57:16;14.40;99.90
18163;DHT22;9206;50.994;4.538;2023-01-01T10:00:13;14.40;99.90
18163;DHT22;9206;50.994;4.538;2023-01-01T10:03:16;14.30;99.90
18163;DHT22;9206;50.994;4.538;2023-01-01T10:06:21;14.40;99.90
18163;DHT22;9206;50.994;4.538;2023-01-01T10:09:20;14.40;99.90
18163;DHT22;9206;50.994;4.538;2023-01-01T10:12:21;14.50;99.90
18163;DHT22;9206;50.994;4.538;2023-01-01T10:15:16;14.50;99.90
18163;DHT22;9206;50.994;4.538;2023-01-01T10:18:11;14.50;99.90
18163;DHT22;9206;50.994;4.538;2023-01-01T10:21:08;14.40;99.90
18163;DHT22;9206;50.994;4.538;2023-01-01T10:24:02;14.50;99.90
18163;DHT22;9206;50.994;4.538;2023-01-01T10:26:54;14.60;99.90
18163;DHT22;9206;50.994;4.538;2023-01-01T10:29:45;14.70;99.90
18163;DHT22;9206;50.994;4.538;2023-01-01T10:32:38;15.00;99.90
18163;DHT22;9206;50.994;4.538;2023-01-01T10:35:32;15.40;99.90
18163;DHT22;9206;50.994;4.538;2023-01-01T10:38:22;15.90;99.90
18163;DHT22;9206;50.994;4.538;2023-01-01T10:41:11;16.90;99.90
18163;DHT22;9206;50.994;4.538;2023-01-01T10:44:03;17.50;99.90
18163;DHT22;9206;50.994;4.538;2023-01-01T10:46:56;17.90;99.90
18163;DHT22;9206;50.994;4.538;2023-01-01T10:49:53;18.30;99.90
18163;DHT22;9206;50.994;4.538;2023-01-01T10:52:41;18.10;99.90
18163;DHT22;9206;50.994;4.538;2023-01-01T10:55:31;17.80;99.90
18163;DHT22;9206;50.994;4.538;2023-01-01T10:58:38;17.70;99.90
18163;DHT22;9206;50.994;4.538;2023-01-01T11:01:30;18.00;99.90
18163;DHT22;9206;50.994;4.538;2023-01-01T11:04:19;18.40;99.90
18163;DHT22;9206;50.994;4.538;2023-01-01T11:07:18;18.30;99.90
18163;DHT22;9206;50.994;4.538;2023-01-01T11:10:16;18.60;99.90
18163;DHT22;9206;50.994;4.538;2023-01-01T11:13:17;18.00;99.90
18163;DHT22;9206;50.994;4.538;2023-01-01T11:16:10;17.90;99.90
18163;DHT22;9206;50.994;4.538;2023-01-01T11:19:07;17.50;99.90
18163;DHT22;9206;50.994;4.538;2023-01-01T11:21:58;17.00;99.90
18163;DHT22;9206;50.994;4.538;2023-01-01T11:24:59;17.10;99.90
18163;DHT22;9206;50.994;4.538;2023-01-01T11:27:48;17.10;99.90
18163;DHT22;9206;50.994;4.538;2023-01-01T11:30:38;17.20;99.90
18163;DHT22;9206;50.994;4.538;2023-01-01T11:33:26;17.90;99.90
18163;DHT22;9206;50.994;4.538;2023-01-01T11:36:30;17.40;99.90
18163;DHT22;9206;50.994;4.538;2023-01-01T11:39:22;16.70;99.90
18163;DHT22;9206;50.994;4.538;2023-01-01T11:42:17;16.20;99.90
18163;DHT22;9206;50.994;4.538;2023-01-01T11:45:15;16.10;99.90
18163;DHT22;9206;50.994;4.538;2023-01-01T11:48:09;16.10;99.90
18163;DHT22;9206;50.994;4.538;2023-01-01T11:51:00;15.80;99.90
18163;DHT22;9206;50.994;4.538;2023-01-01T11:53:49;15.70;99.90
18163;DHT22;9206;50.994;4.538;2023-01-01T11:56:36;15.50;99.90
18163;DHT22;9206;50.994;4.538;2023-01-01T11:59:38;15.30;99.90
18163;DHT22;9206;50.994;4.538;2023-01-01T12:02:31;15.20;99.90
18163;DHT22;9206;50.994;4.538;2023-01-01T12:05:23;15.20;99.90
18163;DHT22;9206;50.994;4.538;2023-01-01T12:08:13;15.30;99.90
18163;DHT22;9206;50.994;4.538;2023-01-01T12:11:13;15.80;99.90
18163;DHT22;9206;50.994;4.538;2023-01-01T12:14:18;16.60;99.90
18163;DHT22;9206;50.994;4.538;2023-01-01T12:17:13;17.90;99.90
18163;DHT22;9206;50.994;4.538;2023-01-01T12:20:09;17.40;99.90
18163;DHT22;9206;50.994;4.538;2023-01-01T12:22:58;16.60;99.90
18163;DHT22;9206;50.994;4.538;2023-01-01T12:25:58;16.20;99.90
18163;DHT22;9206;50.994;4.538;2023-01-01T12:32:19;15.30;99.90
18163;DHT22;9206;50.994;4.538;2023-01-01T12:35:19;15.00;99.90
18163;DHT22;9206;50.994;4.538;2023-01-01T12:38:19;14.80;99.90
18163;DHT22;9206;50.994;4.538;2023-01-01T12:41:12;14.70;99.90
18163;DHT22;9206;50.994;4.538;2023-01-01T12:44:13;14.60;99.90
18163;DHT22;9206;50.994;4.538;2023-01-01T12:47:08;14.50;99.90
18163;DHT22;9206;50.994;4.538;2023-01-01T12:50:10;14.50;99.90
18163;DHT22;9206;50.994;4.538;2023-01-01T12:53:07;14.50;99.90
18163;DHT22;9206;50.994;4.538;2023-01-01T12:56:08;14.50;99.90
18163;DHT22;9206;50.994;4.538;2023-01-01T12:59:06;14.50;99.90
18163;DHT22;9206;50.994;4.538;2023-01-01T13:02:01;14.60;99.90
18163;DHT22;9206;50.994;4.538;2023-01-01T13:04:52;14.60;99.90
18163;DHT22;9206;50.994;4.538;2023-01-01T13:07:49;14.50;99.90
18163;DHT22;9206;50.994;4.538;2023-01-01T13:10:39;14.50;99.90
18163;DHT22;9206;50.994;4.538;2023-01-01T13:13:31;14.50;99.90
18163;DHT22;9206;50.994;4.538;2023-01-01T13:16:32;14.40;99.90
18163;DHT22;9206;50.994;4.538;2023-01-01T13:19:30;14.40;99.90
18163;DHT22;9206;50.994;4.538;2023-01-01T13:22:38;14.30;99.90
18163;DHT22;9206;50.994;4.538;2023-01-01T13:25:29;14.30;99.90
18163;DHT22;9206;50.994;4.538;2023-01-01T13:28:16;14.30;99.90
18163;DHT22;9206;50.994;4.538;2023-01-01T13:31:04;14.30;99.90
18163;DHT22;9206;50.994;4.538;2023-01-01T13:37:29;14.20;99.90
18163;DHT22;9206;50.994;4.538;2023-01-01T13:40:51;14.10;99.90
18163;DHT22;9206;50.994;4.538;2023-01-01T13:43:42;14.10;99.90
18163;DHT22;9206;50.994;4.538;2023-01-01T13:46:37;14.00;99.90
18163;DHT22;9206;50.994;4.538;2023-01-01T13:49:33;14.00;99.90
18163;DHT22;9206;50.994;4.538;2023-01-01T13:52:36;14.00;99.90
18163;DHT22;9206;50.994;4.538;2023-01-01T13:55:43;14.00;99.90
18163;DHT22;9206;50.994;4.538;2023-01-01T13:58:42;13.90;99.90
18163;DHT22;9206;50.994;4.538;2023-01-01T14:01:37;13.90;99.90
18163;DHT22;9206;50.994;4.538;2023-01-01T14:04:14;13.80;99.90
18163;DHT22;9206;50.994;4.538;2023-01-01T14:06:46;13.90;99.90
18163;DHT22;9206;50.994;4.538;2023-01-01T14:09:19;13.80;99.90
18163;DHT22;9206;50.994;4.538;2023-01-01T14:11:47;13.80;99.90
18163;DHT22;9206;50.994;4.538;2023-01-01T14:14:25;13.80;99.90
18163;DHT22;9206;50.994;4.538;2023-01-01T14:16:55;13.80;99.90
18163;DHT22;9206;50.994;4.538;2023-01-01T14:19:44;13.80;99.90
18163;DHT22;9206;50.994;4.538;2023-01-01T14:22:20;13.70;99.90
18163;DHT22;9206;50.994;4.538;2023-01-01T14:24:47;13.70;99.90
18163;DHT22;9206;50.994;4.538;2023-01-01T14:27:18;13.70;99.90
18163;DHT22;9206;50.994;4.538;2023-01-01T14:29:49;13.70;99.90
18163;DHT22;9206;50.994;4.538;2023-01-01T14:32:22;13.70;99.90
18163;DHT22;9206;50.994;4.538;2023-01-01T14:35:01;13.70;99.90
18163;DHT22;9206;50.994;4.538;2023-01-01T14:37:32;13.70;99.90
18163;DHT22;9206;50.994;4.538;2023-01-01T14:40:23;13.70;99.90
18163;DHT22;9206;50.994;4.538;2023-01-01T14:43:15;13.70;99.90
18163;DHT22;9206;50.994;4.538;2023-01-01T14:46:06;13.60;99.90
18163;DHT22;9206;50.994;4.538;2023-01-01T14:48:59;13.60;99.90
18163;DHT22;9206;50.994;4.538;2023-01-01T14:51:54;13.60;99.90
18163;DHT22;9206;50.994;4.538;2023-01-01T14:54:43;13.50;99.90
18163;DHT22;9206;50.994;4.538;2023-01-01T14:57:34;13.50;99.90
18163;DHT22;9206;50.994;4.538;2023-01-01T15:00:23;13.40;99.90
18163;DHT22;9206;50.994;4.538;2023-01-01T15:03:17;13.50;99.90
18163;DHT22;9206;50.994;4.538;2023-01-01T15:06:15;13.50;99.90
18163;DHT22;9206;50.994;4.538;2023-01-01T15:09:04;13.40;99.90
18163;DHT22;9206;50.994;4.538;2023-01-01T15:11:52;13.40;99.90
18163;DHT22;9206;50.994;4.538;2023-01-01T15:14:43;13.30;99.90
18163;DHT22;9206;50.994;4.538;2023-01-01T15:17:44;13.30;99.90
18163;DHT22;9206;50.994;4.538;2023-01-01T15:20:39;13.30;99.90
18163;DHT22;9206;50.994;4.538;2023-01-01T15:23:48;13.30;99.90
18163;DHT22;9206;50.994;4.538;2023-01-01T15:26:41;13.30;99.90
18163;DHT22;9206;50.994;4.538;2023-01-01T15:29:31;13.30;99.90
18163;DHT22;9206;50.994;4.538;2023-01-01T15:32:32;13.30;99.90
18163;DHT22;9206;50.994;4.538;2023-01-01T15:35:28;13.30;99.90
18163;DHT22;9206;50.994;4.538;2023-01-01T15:38:21;13.30;99.90
18163;DHT22;9206;50.994;4.538;2023-01-01T15:41:23;13.30;99.90
18163;DHT22;9206;50.994;4.538;2023-01-01T15:44:19;13.20;99.90
18163;DHT22;9206;50.994;4.538;2023-01-01T15:47:12;13.20;99.90
18163;DHT22;9206;50.994;4.538;2023-01-01T15:50:10;13.20;99.90
18163;DHT22;9206;50.994;4.538;2023-01-01T15:53:02;13.10;99.90
18163;DHT22;9206;50.994;4.538;2023-01-01T15:55:57;13.00;99.90
18163;DHT22;9206;50.994;4.538;2023-01-01T15:58:57;12.90;99.90
18163;DHT22;9206;50.994;4.538;2023-01-01T16:02:06;12.90;99.90
18163;DHT22;9206;50.994;4.538;2023-01-01T16:05:01;12.80;99.90
18163;DHT22;9206;50.994;4.538;2023-01-01T16:07:59;12.80;99.90
18163;DHT22;9206;50.994;4.538;2023-01-01T16:10:54;12.70;99.90
18163;DHT22;9206;50.994;4.538;2023-01-01T16:13:42;12.70;99.90
18163;DHT22;9206;50.994;4.538;2023-01-01T16:16:31;12.60;99.90
18163;DHT22;9206;50.994;4.538;2023-01-01T16:19:20;12.60;99.90
18163;DHT22;9206;50.994;4.538;2023-01-01T16:22:12;12.50;99.90
18163;DHT22;9206;50.994;4.538;2023-01-01T16:25:04;12.50;99.90
18163;DHT22;9206;50.994;4.538;2023-01-01T16:27:54;12.50;99.90
18163;DHT22;9206;50.994;4.538;2023-01-01T16:30:43;12.40;99.90
18163;DHT22;9206;50.994;4.538;2023-01-01T16:33:37;12.50;99.90
18163;DHT22;9206;50.994;4.538;2023-01-01T16:36:27;12.40;99.90
18163;DHT22;9206;50.994;4.538;2023-01-01T16:39:20;12.30;99.90
18163;DHT22;9206;50.994;4.538;2023-01-01T16:42:10;12.20;99.90
18163;DHT22;9206;50.994;4.538;2023-01-01T16:45:00;12.20;99.90
18163;DHT22;9206;50.994;4.538;2023-01-01T16:47:50;12.10;99.90
18163;DHT22;9206;50.994;4.538;2023-01-01T16:50:39;12.10;99.90
18163;DHT22;9206;50.994;4.538;2023-01-01T16:53:29;12.00;99.90
18163;DHT22;9206;50.994;4.538;2023-01-01T16:56:17;11.90;99.90
18163;DHT22;9206;50.994;4.538;2023-01-01T16:59:05;11.90;99.90
18163;DHT22;9206;50.994;4.538;2023-01-01T17:01:55;11.90;99.90
18163;DHT22;9206;50.994;4.538;2023-01-01T17:04:54;11.90;99.90
18163;DHT22;9206;50.994;4.538;2023-01-01T17:07:44;11.80;99.90
18163;DHT22;9206;50.994;4.538;2023-01-01T17:10:40;11.70;99.90
18163;DHT22;9206;50.994;4.538;2023-01-01T17:13:27;11.70;99.90
18163;DHT22;9206;50.994;4.538;2023-01-01T17:16:15;11.70;99.90
18163;DHT22;9206;50.994;4.538;2023-01-01T17:19:05;11.70;99.90
18163;DHT22;9206;50.994;4.538;2023-01-01T17:21:54;11.70;99.90
18163;DHT22;9206;50.994;4.538;2023-01-01T17:24:57;11.70;99.90
18163;DHT22;9206;50.994;4.538;2023-01-01T17:27:57;11.60;99.90
18163;DHT22;9206;50.994;4.538;2023-01-01T17:30:46;11.60;99.90
18163;DHT22;9206;50.994;4.538;2023-01-01T17:33:36;11.60;99.90
18163;DHT22;9206;50.994;4.538;2023-01-01T17:36:31;11.50;99.90
18163;DHT22;9206;50.994;4.538;2023-01-01T17:39:18;11.50;99.90
18163;DHT22;9206;50.994;4.538;2023-01-01T17:42:08;11.50;99.90
18163;DHT22;9206;50.994;4.538;2023-01-01T17:44:56;11.50;99.90
18163;DHT22;9206;50.994;4.538;2023-01-01T17:47:46;11.40;99.90
18163;DHT22;9206;50.994;4.538;2023-01-01T17:50:33;11.40;99.90
18163;DHT22;9206;50.994;4.538;2023-01-01T17:53:22;11.30;99.90
18163;DHT22;9206;50.994;4.538;2023-01-01T17:56:11;11.40;99.90
18163;DHT22;9206;50.994;4.538;2023-01-01T17:58:59;11.30;99.90
18163;DHT22;9206;50.994;4.538;2023-01-01T18:01:52;11.30;99.90
18163;DHT22;9206;50.994;4.538;2023-01-01T18:04:45;11.20;99.90
18163;DHT22;9206;50.994;4.538;2023-01-01T18:07:39;11.20;99.90
18163;DHT22;9206;50.994;4.538;2023-01-01T18:10:32;11.20;99.90
18163;DHT22;9206;50.994;4.538;2023-01-01T18:13:20;11.20;99.90
18163;DHT22;9206;50.994;4.538;2023-01-01T18:16:11;11.20;99.90
18163;DHT22;9206;50.994;4.538;2023-01-01T18:19:00;11.10;99.90
18163;DHT22;9206;50.994;4.538;2023-01-01T18:21:51;11.10;99.90
18163;DHT22;9206;50.994;4.538;2023-01-01T18:24:41;11.10;99.90
18163;DHT22;9206;50.994;4.538;2023-01-01T18:27:31;11.10;99.90
18163;DHT22;9206;50.994;4.538;2023-01-01T18:30:22;11.10;99.90